sensor_id;sensor_type;location;lat;lon;timestamp;temperature;humidity
21950;DHT22;11139;51.284;7.226;2024-03-02T00:02:43;7.90;99.90
21950;DHT22;11139;51.284;7.226;2024-03-02T00:05:13;7.90;99.90
21950;DHT22;11139;51.284;7.226;2024-03-02T00:07:40;7.90;99.90
21950;DHT22;11139;51.284;7.226;2024-03-02T00:10:07;7.90;99.90
21950;DHT22;11139;51.284;7.226;2024-03-02T00:12:33;7.90;99.90
21950;DHT22;11139;51.284;7.226;2024-03-02T00:14:59;7.90;99.90
21950;DHT22;11139;51.284;7.226;2024-03-02T00:17:27;7.90;99.90
21950;DHT22;11139;51.284;7.226;2024-03-02T00:19:54;7.90;99.90
21950;DHT22;11139;51.284;7.226;2024-03-02T00:22:20;7.90;99.90
21950;DHT22;11139;51.284;7.226;2024-03-02T00:24:45;7.90;99.90
21950;DHT22;11139;51.284;7.226;2024-03-02T00:27:12;7.90;99.90
21950;DHT22;11139;51.284;7.226;2024-03-02T00:29:40;7.90;99.90
21950;DHT22;11139;51.284;7.226;2024-03-02T00:32:10;7.90;99.90
21950;DHT22;11139;51.284;7.226;2024-03-02T00:34:37;7.90;99.90
21950;DHT22;11139;51.284;7.226;2024-03-02T00:37:03;7.90;99.90
21950;DHT22;11139;51.284;7.226;2024-03-02T00:39:28;7.90;99.90
21950;DHT22;11139;51.284;7.226;2024-03-02T00:41:54;7.90;99.90
21950;DHT22;11139;51.284;7.226;2024-03-02T00:44:20;7.90;99.90
21950;DHT22;11139;51.284;7.226;2024-03-02T00:46:50;7.90;99.90
21950;DHT22;11139;51.284;7.226;2024-03-02T00:49:20;7.80;99.90
21950;DHT22;11139;51.284;7.226;2024-03-02T00:51:47;7.90;99.90
21950;DHT22;11139;51.284;7.226;2024-03-02T00:54:18;7.90;99.90
21950;DHT22;11139;51.284;7.226;2024-03-02T00:56:44;7.90;99.90
21950;DHT22;11139;51.284;7.226;2024-03-02T00:59:10;7.90;99.90
21950;DHT22;11139;51.284;7.226;2024-03-02T01:01:35;7.80;99.90
21950;DHT22;11139;51.284;7.226;2024-03-02T01:04:01;7.90;99.90
21950;DHT22;11139;51.284;7.226;2024-03-02T01:06:26;7.90;99.90
21950;DHT22;11139;51.284;7.226;2024-03-02T01:08:53;7.80;99.90
21950;DHT22;11139;51.284;7.226;2024-03-02T01:11:18;7.80;99.90
21950;DHT22;11139;51.284;7.226;2024-03-02T01:13:44;7.90;99.90
21950;DHT22;11139;51.284;7.226;2024-03-02T01:16:11;7.90;99.90
21950;DHT22;11139;51.284;7.226;2024-03-02T01:18:37;7.80;99.90
21950;DHT22;11139;51.284;7.226;2024-03-02T01:21:02;7.80;99.90
21950;DHT22;11139;51.284;7.226;2024-03-02T01:23:28;7.80;99.90
21950;DHT22;11139;51.284;7.226;2024-03-02T01:25:53;7.80;99.90
21950;DHT22;11139;51.284;7.226;2024-03-02T01:28:20;7.80;99.90
21950;DHT22;11139;51.284;7.226;2024-03-02T01:30:48;7.80;99.90
21950;DHT22;11139;51.284;7.226;2024-03-02T01:33:14;7.80;99.90
21950;DHT22;11139;51.284;7.226;2024-03-02T01:35:40;7.80;99.90
21950;DHT22;11139;51.284;7.226;2024-03-02T01:38:06;7.80;99.90
21950;DHT22;11139;51.284;7.226;2024-03-02T01:40:35;7.80;99.90
21950;DHT22;11139;51.284;7.226;2024-03-02T01:43:00;7.80;99.90
21950;DHT22;11139;51.284;7.226;2024-03-02T01:45:27;7.80;99.90
21950;DHT22;11139;51.284;7.226;2024-03-02T01:47:53;7.80;99.90
21950;DHT22;11139;51.284;7.226;2024-03-02T01:50:28;7.80;99.90
21950;DHT22;11139;51.284;7.226;2024-03-02T01:52:55;7.80;99.90
21950;DHT22;11139;51.284;7.226;2024-03-02T01:55:20;7.80;99.90
21950;DHT22;11139;51.284;7.226;2024-03-02T01:57:46;7.80;99.90
21950;DHT22;11139;51.284;7.226;2024-03-02T02:00:13;7.80;99.90
21950;DHT22;11139;51.284;7.226;2024-03-02T02:02:39;7.80;99.90
21950;DHT22;11139;51.284;7.226;2024-03-02T02:05:04;7.80;99.90
21950;DHT22;11139;51.284;7.226;2024-03-02T02:07:30;7.80;99.90
21950;DHT22;11139;51.284;7.226;2024-03-02T02:09:56;7.80;99.90
21950;DHT22;11139;51.284;7.226;2024-03-02T02:12:22;7.80;99.90
21950;DHT22;11139;51.284;7.226;2024-03-02T02:14:48;7.80;99.90
21950;DHT22;11139;51.284;7.226;2024-03-02T02:17:16;7.80;99.90
21950;DHT22;11139;51.284;7.226;2024-03-02T02:19:42;7.80;99.90
21950;DHT22;11139;51.284;7.226;2024-03-02T02:22:08;7.80;99.90
21950;DHT22;11139;51.284;7.226;2024-03-02T02:24:33;7.80;99.90
21950;DHT22;11139;51.284;7.226;2024-03-02T02:26:59;7.80;99.90
21950;DHT22;11139;51.284;7.226;2024-03-02T02:29:24;7.80;99.90
21950;DHT22;11139;51.284;7.226;2024-03-02T02:31:50;7.80;99.90
21950;DHT22;11139;51.284;7.226;2024-03-02T02:34:16;7.80;99.90
21950;DHT22;11139;51.284;7.226;2024-03-02T02:36:41;7.80;99.90
21950;DHT22;11139;51.284;7.226;2024-03-02T02:39:09;7.80;99.90
21950;DHT22;11139;51.284;7.226;2024-03-02T02:41:37;7.80;99.90
21950;DHT22;11139;51.284;7.226;2024-03-02T02:44:03;7.80;99.90
21950;DHT22;11139;51.284;7.226;2024-03-02T02:46:28;7.80;99.90
21950;DHT22;11139;51.284;7.226;2024-03-02T02:48:54;7.80;99.90
21950;DHT22;11139;51.284;7.226;2024-03-02T02:51:20;7.80;99.90
21950;DHT22;11139;51.284;7.226;2024-03-02T02:53:45;7.80;99.90
21950;DHT22;11139;51.284;7.226;2024-03-02T02:56:11;7.80;99.90
21950;DHT22;11139;51.284;7.226;2024-03-02T02:58:36;7.80;99.90
21950;DHT22;11139;51.284;7.226;2024-03-02T03:01:02;7.80;99.90
21950;DHT22;11139;51.284;7.226;2024-03-02T03:03:27;7.80;99.90
21950;DHT22;11139;51.284;7.226;2024-03-02T03:05:53;7.70;99.90
21950;DHT22;11139;51.284;7.226;2024-03-02T03:08:18;7.80;99.90
21950;DHT22;11139;51.284;7.226;2024-03-02T03:10:44;7.80;99.90
21950;DHT22;11139;51.284;7.226;2024-03-02T03:13:10;7.80;99.90
21950;DHT22;11139;51.284;7.226;2024-03-02T03:15:35;7.80;99.90
21950;DHT22;11139;51.284;7.226;2024-03-02T03:18:04;7.80;99.90
21950;DHT22;11139;51.284;7.226;2024-03-02T03:20:30;7.70;99.90
21950;DHT22;11139;51.284;7.226;2024-03-02T03:22:55;7.70;99.90
21950;DHT22;11139;51.284;7.226;2024-03-02T03:25:21;7.80;99.90
21950;DHT22;11139;51.284;7.226;2024-03-02T03:27:46;7.80;99.90
21950;DHT22;11139;51.284;7.226;2024-03-02T03:30:12;7.70;99.90
21950;DHT22;11139;51.284;7.226;2024-03-02T03:32:38;7.80;99.90
21950;DHT22;11139;51.284;7.226;2024-03-02T03:35:03;7.70;99.90
21950;DHT22;11139;51.284;7.226;2024-03-02T03:37:29;7.80;99.90
21950;DHT22;11139;51.284;7.226;2024-03-02T03:40:01;7.70;99.90
21950;DHT22;11139;51.284;7.226;2024-03-02T03:42:27;7.80;99.90
21950;DHT22;11139;51.284;7.226;2024-03-02T03:44:52;7.70;99.90
21950;DHT22;11139;51.284;7.226;2024-03-02T03:47:18;7.70;99.90
21950;DHT22;11139;51.284;7.226;2024-03-02T03:49:43;7.80;99.90
21950;DHT22;11139;51.284;7.226;2024-03-02T03:52:09;7.80;99.90
21950;DHT22;11139;51.284;7.226;2024-03-02T03:54:34;7.70;99.90
21950;DHT22;11139;51.284;7.226;2024-03-02T03:57:02;7.70;99.90
21950;DHT22;11139;51.284;7.226;2024-03-02T03:59:28;7.70;99.90
21950;DHT22;11139;51.284;7.226;2024-03-02T04:01:53;7.80;99.90
21950;DHT22;11139;51.284;7.226;2024-03-02T04:04:19;7.70;99.90
21950;DHT22;11139;51.284;7.226;2024-03-02T04:06:44;7.80;99.90
21950;DHT22;11139;51.284;7.226;2024-03-02T04:09:10;7.70;99.90
21950;DHT22;11139;51.284;7.226;2024-03-02T04:11:35;7.70;99.90
21950;DHT22;11139;51.284;7.226;2024-03-02T04:14:01;7.70;99.90
21950;DHT22;11139;51.284;7.226;2024-03-02T04:16:26;7.70;99.90
21950;DHT22;11139;51.284;7.226;2024-03-02T04:18:52;7.70;99.90
21950;DHT22;11139;51.284;7.226;2024-03-02T04:21:17;7.70;99.90
21950;DHT22;11139;51.284;7.226;2024-03-02T04:23:42;7.70;99.90
21950;DHT22;11139;51.284;7.226;2024-03-02T04:26:08;7.70;99.90
21950;DHT22;11139;51.284;7.226;2024-03-02T04:28:34;7.70;99.90
21950;DHT22;11139;51.284;7.226;2024-03-02T04:30:59;7.70;99.90
21950;DHT22;11139;51.284;7.226;2024-03-02T04:33:24;7.70;99.90
21950;DHT22;11139;51.284;7.226;2024-03-02T04:35:50;7.70;99.90
21950;DHT22;11139;51.284;7.226;2024-03-02T04:38:15;7.70;99.90
21950;DHT22;11139;51.284;7.226;2024-03-02T04:40:41;7.70;99.90
21950;DHT22;11139;51.284;7.226;2024-03-02T04:43:06;7.70;99.90
21950;DHT22;11139;51.284;7.226;2024-03-02T04:45:34;7.70;99.90
21950;DHT22;11139;51.284;7.226;2024-03-02T04:47:59;7.70;99.90
21950;DHT22;11139;51.284;7.226;2024-03-02T04:50:25;7.70;99.90
21950;DHT22;11139;51.284;7.226;2024-03-02T04:52:50;7.70;99.90
21950;DHT22;11139;51.284;7.226;2024-03-02T04:55:16;7.70;99.90
21950;DHT22;11139;51.284;7.226;2024-03-02T04:57:41;7.70;99.90
21950;DHT22;11139;51.284;7.226;2024-03-02T05:00:07;7.70;99.90
21950;DHT22;11139;51.284;7.226;2024-03-02T05:02:34;7.70;99.90
21950;DHT22;11139;51.284;7.226;2024-03-02T05:04:59;7.70;99.90
21950;DHT22;11139;51.284;7.226;2024-03-02T05:07:25;7.70;99.90
21950;DHT22;11139;51.284;7.226;2024-03-02T05:09:50;7.70;99.90
21950;DHT22;11139;51.284;7.226;2024-03-02T05:12:16;7.70;99.90
21950;DHT22;11139;51.284;7.226;2024-03-02T05:15:01;7.70;99.90
21950;DHT22;11139;51.284;7.226;2024-03-02T05:17:27;7.70;99.90
21950;DHT22;11139;51.284;7.226;2024-03-02T05:19:52;7.70;99.90
21950;DHT22;11139;51.284;7.226;2024-03-02T05:22:18;7.70;99.90
21950;DHT22;11139;51.284;7.226;2024-03-02T05:24:43;7.70;99.90
21950;DHT22;11139;51.284;7.226;2024-03-02T05:27:09;7.70;99.90
21950;DHT22;11139;51.284;7.226;2024-03-02T05:29:34;7.70;99.90
21950;DHT22;11139;51.284;7.226;2024-03-02T05:32:00;7.70;99.90
21950;DHT22;11139;51.284;7.226;2024-03-02T05:34:25;7.60;99.90
21950;DHT22;11139;51.284;7.226;2024-03-02T05:36:51;7.60;99.90
21950;DHT22;11139;51.284;7.226;2024-03-02T05:39:16;7.60;99.90
21950;DHT22;11139;51.284;7.226;2024-03-02T05:41:42;7.60;99.90
21950;DHT22;11139;51.284;7.226;2024-03-02T05:44:07;7.60;99.90
21950;DHT22;11139;51.284;7.226;2024-03-02T05:46:33;7.60;99.90
21950;DHT22;11139;51.284;7.226;2024-03-02T05:48:59;7.60;99.90
21950;DHT22;11139;51.284;7.226;2024-03-02T05:51:25;7.60;99.90
21950;DHT22;11139;51.284;7.226;2024-03-02T05:53:50;7.60;99.90
21950;DHT22;11139;51.284;7.226;2024-03-02T05:56:16;7.60;99.90
21950;DHT22;11139;51.284;7.226;2024-03-02T05:58:42;7.60;99.90
21950;DHT22;11139;51.284;7.226;2024-03-02T06:01:13;7.60;99.90
21950;DHT22;11139;51.284;7.226;2024-03-02T06:03:39;7.60;99.90
21950;DHT22;11139;51.284;7.226;2024-03-02T06:06:04;7.60;99.90
21950;DHT22;11139;51.284;7.226;2024-03-02T06:08:30;7.60;99.90
21950;DHT22;11139;51.284;7.226;2024-03-02T06:10:56;7.60;99.90
21950;DHT22;11139;51.284;7.226;2024-03-02T06:13:21;7.60;99.90
21950;DHT22;11139;51.284;7.226;2024-03-02T06:15:47;7.60;99.90
21950;DHT22;11139;51.284;7.226;2024-03-02T06:18:15;7.60;99.90
21950;DHT22;11139;51.284;7.226;2024-03-02T06:20:40;7.60;99.90
21950;DHT22;11139;51.284;7.226;2024-03-02T06:23:06;7.60;99.90
21950;DHT22;11139;51.284;7.226;2024-03-02T06:25:31;7.60;99.90
21950;DHT22;11139;51.284;7.226;2024-03-02T06:27:57;7.60;99.90
21950;DHT22;11139;51.284;7.226;2024-03-02T06:30:22;7.60;99.90
21950;DHT22;11139;51.284;7.226;2024-03-02T06:32:48;7.50;99.90
21950;DHT22;11139;51.284;7.226;2024-03-02T06:35:14;7.50;99.90
21950;DHT22;11139;51.284;7.226;2024-03-02T06:37:39;7.60;99.90
21950;DHT22;11139;51.284;7.226;2024-03-02T06:40:06;7.50;99.90
21950;DHT22;11139;51.284;7.226;2024-03-02T06:42:33;7.60;99.90
21950;DHT22;11139;51.284;7.226;2024-03-02T06:44:58;7.60;99.90
21950;DHT22;11139;51.284;7.226;2024-03-02T06:47:24;7.60;99.90
21950;DHT22;11139;51.284;7.226;2024-03-02T06:49:50;7.50;99.90
21950;DHT22;11139;51.284;7.226;2024-03-02T06:52:16;7.60;99.90
21950;DHT22;11139;51.284;7.226;2024-03-02T06:54:41;7.60;99.90
21950;DHT22;11139;51.284;7.226;2024-03-02T06:57:07;7.50;99.90
21950;DHT22;11139;51.284;7.226;2024-03-02T06:59:32;7.50;99.90
21950;DHT22;11139;51.284;7.226;2024-03-02T07:01:59;7.50;99.90
21950;DHT22;11139;51.284;7.226;2024-03-02T07:04:24;7.50;99.90
21950;DHT22;11139;51.284;7.226;2024-03-02T07:06:50;7.50;99.90
21950;DHT22;11139;51.284;7.226;2024-03-02T07:09:16;7.50;99.90
21950;DHT22;11139;51.284;7.226;2024-03-02T07:11:42;7.50;99.90
21950;DHT22;11139;51.284;7.226;2024-03-02T07:14:07;7.50;99.90
21950;DHT22;11139;51.284;7.226;2024-03-02T07:16:33;7.50;99.90
21950;DHT22;11139;51.284;7.226;2024-03-02T07:18:59;7.50;99.90
21950;DHT22;11139;51.284;7.226;2024-03-02T07:21:27;7.50;99.90
21950;DHT22;11139;51.284;7.226;2024-03-02T07:23:53;7.50;99.90
21950;DHT22;11139;51.284;7.226;2024-03-02T07:26:18;7.50;99.90
21950;DHT22;11139;51.284;7.226;2024-03-02T07:28:45;7.50;99.90
21950;DHT22;11139;51.284;7.226;2024-03-02T07:31:11;7.50;99.90
21950;DHT22;11139;51.284;7.226;2024-03-02T07:33:36;7.50;99.90
21950;DHT22;11139;51.284;7.226;2024-03-02T07:36:02;7.50;99.90
21950;DHT22;11139;51.284;7.226;2024-03-02T07:38:28;7.50;99.90
21950;DHT22;11139;51.284;7.226;2024-03-02T07:40:54;7.50;99.90
21950;DHT22;11139;51.284;7.226;2024-03-02T07:43:20;7.50;99.90
21950;DHT22;11139;51.284;7.226;2024-03-02T07:45:46;7.50;99.90
21950;DHT22;11139;51.284;7.226;2024-03-02T07:48:12;7.50;99.90
21950;DHT22;11139;51.284;7.226;2024-03-02T07:50:37;7.50;99.90
21950;DHT22;11139;51.284;7.226;2024-03-02T07:53:04;7.50;99.90
21950;DHT22;11139;51.284;7.226;2024-03-02T07:55:30;7.50;99.90
21950;DHT22;11139;51.284;7.226;2024-03-02T07:57:56;7.50;99.90
21950;DHT22;11139;51.284;7.226;2024-03-02T08:00:22;7.50;99.90
21950;DHT22;11139;51.284;7.226;2024-03-02T08:02:48;7.50;99.90
21950;DHT22;11139;51.284;7.226;2024-03-02T08:05:13;7.50;99.90
21950;DHT22;11139;51.284;7.226;2024-03-02T08:07:39;7.50;99.90
21950;DHT22;11139;51.284;7.226;2024-03-02T08:10:05;7.50;99.90
21950;DHT22;11139;51.284;7.226;2024-03-02T08:12:30;7.50;99.90
21950;DHT22;11139;51.284;7.226;2024-03-02T08:14:56;7.50;99.90
21950;DHT22;11139;51.284;7.226;2024-03-02T08:17:21;7.50;99.90
21950;DHT22;11139;51.284;7.226;2024-03-02T08:19:47;7.50;99.90
21950;DHT22;11139;51.284;7.226;2024-03-02T08:22:14;7.50;99.90
21950;DHT22;11139;51.284;7.226;2024-03-02T08:24:40;7.50;99.90
21950;DHT22;11139;51.284;7.226;2024-03-02T08:27:05;7.50;99.90
21950;DHT22;11139;51.284;7.226;2024-03-02T08:29:31;7.50;99.90
21950;DHT22;11139;51.284;7.226;2024-03-02T08:31:57;7.50;99.90
21950;DHT22;11139;51.284;7.226;2024-03-02T08:34:22;7.50;99.90
21950;DHT22;11139;51.284;7.226;2024-03-02T08:36:48;7.50;99.90
21950;DHT22;11139;51.284;7.226;2024-03-02T08:39:13;7.50;99.90
21950;DHT22;11139;51.284;7.226;2024-03-02T08:41:43;7.50;99.90
21950;DHT22;11139;51.284;7.226;2024-03-02T08:44:09;7.50;99.90
21950;DHT22;11139;51.284;7.226;2024-03-02T08:46:34;7.50;99.90
21950;DHT22;11139;51.284;7.226;2024-03-02T08:49:00;7.50;99.90
21950;DHT22;11139;51.284;7.226;2024-03-02T08:51:25;7.50;99.90
21950;DHT22;11139;51.284;7.226;2024-03-02T08:53:51;7.50;99.90
21950;DHT22;11139;51.284;7.226;2024-03-02T08:56:16;7.50;99.90
21950;DHT22;11139;51.284;7.226;2024-03-02T08:58:43;7.50;99.90
21950;DHT22;11139;51.284;7.226;2024-03-02T09:01:09;7.50;99.90
21950;DHT22;11139;51.284;7.226;2024-03-02T09:03:34;7.50;99.90
21950;DHT22;11139;51.284;7.226;2024-03-02T09:06:00;7.50;99.90
21950;DHT22;11139;51.284;7.226;2024-03-02T09:08:26;7.50;99.90
21950;DHT22;11139;51.284;7.226;2024-03-02T09:10:51;7.50;99.90
21950;DHT22;11139;51.284;7.226;2024-03-02T09:13:17;7.50;99.90
21950;DHT22;11139;51.284;7.226;2024-03-02T09:15:43;7.60;99.90
21950;DHT22;11139;51.284;7.226;2024-03-02T09:18:09;7.50;99.90
21950;DHT22;11139;51.284;7.226;2024-03-02T09:20:35;7.50;99.90
21950;DHT22;11139;51.284;7.226;2024-03-02T09:23:00;7.50;99.90
21950;DHT22;11139;51.284;7.226;2024-03-02T09:25:26;7.50;99.90
21950;DHT22;11139;51.284;7.226;2024-03-02T09:27:51;7.50;99.90
21950;DHT22;11139;51.284;7.226;2024-03-02T09:30:17;7.50;99.90
21950;DHT22;11139;51.284;7.226;2024-03-02T09:32:42;7.50;99.90
21950;DHT22;11139;51.284;7.226;2024-03-02T09:35:08;7.60;99.90
21950;DHT22;11139;51.284;7.226;2024-03-02T09:37:34;7.60;99.90
21950;DHT22;11139;51.284;7.226;2024-03-02T09:40:00;7.60;99.90
21950;DHT22;11139;51.284;7.226;2024-03-02T09:42:26;7.60;99.90
21950;DHT22;11139;51.284;7.226;2024-03-02T09:44:51;7.60;99.90
21950;DHT22;11139;51.284;7.226;2024-03-02T09:47:17;7.60;99.90
21950;DHT22;11139;51.284;7.226;2024-03-02T09:49:43;7.60;99.90
21950;DHT22;11139;51.284;7.226;2024-03-02T09:52:10;7.60;99.90
21950;DHT22;11139;51.284;7.226;2024-03-02T09:54:35;7.60;99.90
21950;DHT22;11139;51.284;7.226;2024-03-02T09:57:01;7.60;99.90
21950;DHT22;11139;51.284;7.226;2024-03-02T09:59:27;7.60;99.90
21950;DHT22;11139;51.284;7.226;2024-03-02T10:04:25;7.60;99.90
21950;DHT22;11139;51.284;7.226;2024-03-02T10:06:50;7.60;99.90
21950;DHT22;11139;51.284;7.226;2024-03-02T10:09:26;7.60;99.90
21950;DHT22;11139;51.284;7.226;2024-03-02T10:11:52;7.60;99.90
21950;DHT22;11139;51.284;7.226;2024-03-02T10:14:17;7.60;99.90
21950;DHT22;11139;51.284;7.226;2024-03-02T10:16:43;7.60;99.90
21950;DHT22;11139;51.284;7.226;2024-03-02T10:19:19;7.60;99.90
21950;DHT22;11139;51.284;7.226;2024-03-02T10:21:45;7.60;99.90
21950;DHT22;11139;51.284;7.226;2024-03-02T10:24:11;7.70;99.90
21950;DHT22;11139;51.284;7.226;2024-03-02T10:26:38;7.60;99.90
21950;DHT22;11139;51.284;7.226;2024-03-02T10:29:03;7.70;99.90
21950;DHT22;11139;51.284;7.226;2024-03-02T10:31:29;7.70;99.90
21950;DHT22;11139;51.284;7.226;2024-03-02T10:33:54;7.60;99.90
21950;DHT22;11139;51.284;7.226;2024-03-02T10:36:20;7.70;99.90
21950;DHT22;11139;51.284;7.226;2024-03-02T10:38:46;7.70;99.90
21950;DHT22;11139;51.284;7.226;2024-03-02T10:41:16;7.70;99.90
21950;DHT22;11139;51.284;7.226;2024-03-02T10:43:42;7.70;99.90
21950;DHT22;11139;51.284;7.226;2024-03-02T10:46:08;7.70;99.90
21950;DHT22;11139;51.284;7.226;2024-03-02T10:48:33;7.70;99.90
21950;DHT22;11139;51.284;7.226;2024-03-02T10:51:01;7.70;99.90
21950;DHT22;11139;51.284;7.226;2024-03-02T10:53:27;7.70;99.90
21950;DHT22;11139;51.284;7.226;2024-03-02T10:55:54;7.70;99.90
21950;DHT22;11139;51.284;7.226;2024-03-02T10:58:22;7.70;99.90
21950;DHT22;11139;51.284;7.226;2024-03-02T11:00:49;7.70;99.90
21950;DHT22;11139;51.284;7.226;2024-03-02T11:03:15;7.70;99.90
21950;DHT22;11139;51.284;7.226;2024-03-02T11:05:43;7.70;99.90
21950;DHT22;11139;51.284;7.226;2024-03-02T11:08:12;7.80;99.90
21950;DHT22;11139;51.284;7.226;2024-03-02T11:10:43;7.80;99.90
21950;DHT22;11139;51.284;7.226;2024-03-02T11:13:11;7.70;99.90
21950;DHT22;11139;51.284;7.226;2024-03-02T11:15:37;7.80;99.90
21950;DHT22;11139;51.284;7.226;2024-03-02T11:18:05;7.70;99.90
21950;DHT22;11139;51.284;7.226;2024-03-02T11:20:38;7.80;99.90
21950;DHT22;11139;51.284;7.226;2024-03-02T11:23:05;7.80;99.90
21950;DHT22;11139;51.284;7.226;2024-03-02T11:25:31;7.80;99.90
21950;DHT22;11139;51.284;7.226;2024-03-02T11:27:58;7.80;99.90
21950;DHT22;11139;51.284;7.226;2024-03-02T11:33:02;7.80;99.90
21950;DHT22;11139;51.284;7.226;2024-03-02T11:35:34;7.80;99.90
21950;DHT22;11139;51.284;7.226;2024-03-02T11:38:00;7.80;99.90
21950;DHT22;11139;51.284;7.226;2024-03-02T11:40:27;7.80;99.90
21950;DHT22;11139;51.284;7.226;2024-03-02T11:42:53;7.80;99.90
21950;DHT22;11139;51.284;7.226;2024-03-02T11:45:25;7.80;99.90
21950;DHT22;11139;51.284;7.226;2024-03-02T11:47:52;7.80;99.90
21950;DHT22;11139;51.284;7.226;2024-03-02T11:52:57;7.80;99.90
21950;DHT22;11139;51.284;7.226;2024-03-02T11:55:23;7.80;99.90
21950;DHT22;11139;51.284;7.226;2024-03-02T11:57:51;7.90;99.90
21950;DHT22;11139;51.284;7.226;2024-03-02T12:00:17;7.90;99.90
21950;DHT22;11139;51.284;7.226;2024-03-02T12:02:43;7.90;99.90
21950;DHT22;11139;51.284;7.226;2024-03-02T12:05:15;7.90;99.90
21950;DHT22;11139;51.284;7.226;2024-03-02T12:07:40;7.90;99.90
21950;DHT22;11139;51.284;7.226;2024-03-02T12:10:06;7.90;99.90
21950;DHT22;11139;51.284;7.226;2024-03-02T12:12:32;7.90;99.90
21950;DHT22;11139;51.284;7.226;2024-03-02T12:14:57;7.90;99.90
21950;DHT22;11139;51.284;7.226;2024-03-02T12:17:24;7.90;99.90
21950;DHT22;11139;51.284;7.226;2024-03-02T12:19:50;7.90;99.90
21950;DHT22;11139;51.284;7.226;2024-03-02T12:22:15;7.90;99.90
21950;DHT22;11139;51.284;7.226;2024-03-02T12:24:41;7.90;99.90
21950;DHT22;11139;51.284;7.226;2024-03-02T12:27:07;7.90;99.90
21950;DHT22;11139;51.284;7.226;2024-03-02T12:29:32;7.90;99.90
21950;DHT22;11139;51.284;7.226;2024-03-02T12:31:59;7.90;99.90
21950;DHT22;11139;51.284;7.226;2024-03-02T12:34:24;7.90;99.90
21950;DHT22;11139;51.284;7.226;2024-03-02T12:36:51;7.90;99.90
21950;DHT22;11139;51.284;7.226;2024-03-02T12:39:18;8.00;99.90
21950;DHT22;11139;51.284;7.226;2024-03-02T12:41:45;8.00;99.90
21950;DHT22;11139;51.284;7.226;2024-03-02T12:44:11;8.00;99.90
21950;DHT22;11139;51.284;7.226;2024-03-02T12:46:36;8.00;99.90
21950;DHT22;11139;51.284;7.226;2024-03-02T12:49:09;8.00;99.90
21950;DHT22;11139;51.284;7.226;2024-03-02T12:51:40;8.00;99.90
21950;DHT22;11139;51.284;7.226;2024-03-02T12:54:07;8.00;99.90
21950;DHT22;11139;51.284;7.226;2024-03-02T12:56:33;8.00;99.90
21950;DHT22;11139;51.284;7.226;2024-03-02T12:58:58;8.00;99.90
21950;DHT22;11139;51.284;7.226;2024-03-02T13:01:24;8.00;99.90
21950;DHT22;11139;51.284;7.226;2024-03-02T13:03:50;8.00;99.90
21950;DHT22;11139;51.284;7.226;2024-03-02T13:06:16;8.00;99.90
21950;DHT22;11139;51.284;7.226;2024-03-02T13:08:42;8.00;99.90
21950;DHT22;11139;51.284;7.226;2024-03-02T13:11:08;8.00;99.90
21950;DHT22;11139;51.284;7.226;2024-03-02T13:13:33;8.00;99.90
21950;DHT22;11139;51.284;7.226;2024-03-02T13:16:00;8.00;99.90
21950;DHT22;11139;51.284;7.226;2024-03-02T13:18:25;8.00;99.90
21950;DHT22;11139;51.284;7.226;2024-03-02T13:20:51;8.00;99.90
21950;DHT22;11139;51.284;7.226;2024-03-02T13:23:17;8.00;99.90
21950;DHT22;11139;51.284;7.226;2024-03-02T13:25:42;8.00;99.90
21950;DHT22;11139;51.284;7.226;2024-03-02T13:28:08;8.00;99.90
21950;DHT22;11139;51.284;7.226;2024-03-02T13:30:34;8.00;99.90
21950;DHT22;11139;51.284;7.226;2024-03-02T13:32:59;8.10;99.90
21950;DHT22;11139;51.284;7.226;2024-03-02T13:35:26;8.10;99.90
21950;DHT22;11139;51.284;7.226;2024-03-02T13:37:51;8.00;99.90
21950;DHT22;11139;51.284;7.226;2024-03-02T13:40:16;8.10;99.90
21950;DHT22;11139;51.284;7.226;2024-03-02T13:42:48;8.10;99.90
21950;DHT22;11139;51.284;7.226;2024-03-02T13:45:14;8.10;99.90
21950;DHT22;11139;51.284;7.226;2024-03-02T13:47:40;8.10;99.90
21950;DHT22;11139;51.284;7.226;2024-03-02T13:50:05;8.10;99.90
21950;DHT22;11139;51.284;7.226;2024-03-02T13:52:32;8.10;99.90
21950;DHT22;11139;51.284;7.226;2024-03-02T13:54:58;8.10;99.90
21950;DHT22;11139;51.284;7.226;2024-03-02T13:57:23;8.10;99.90
21950;DHT22;11139;51.284;7.226;2024-03-02T13:59:49;8.10;99.90
21950;DHT22;11139;51.284;7.226;2024-03-02T14:02:14;8.10;99.90
21950;DHT22;11139;51.284;7.226;2024-03-02T14:04:40;8.10;99.90
21950;DHT22;11139;51.284;7.226;2024-03-02T14:07:06;8.10;99.90
21950;DHT22;11139;51.284;7.226;2024-03-02T14:09:34;8.10;99.90
21950;DHT22;11139;51.284;7.226;2024-03-02T14:12:00;8.10;99.90
21950;DHT22;11139;51.284;7.226;2024-03-02T14:14:28;8.10;99.90
21950;DHT22;11139;51.284;7.226;2024-03-02T14:16:54;8.10;99.90
21950;DHT22;11139;51.284;7.226;2024-03-02T14:19:21;8.10;99.90
21950;DHT22;11139;51.284;7.226;2024-03-02T14:21:47;8.10;99.90
21950;DHT22;11139;51.284;7.226;2024-03-02T14:24:12;8.10;99.90
21950;DHT22;11139;51.284;7.226;2024-03-02T14:26:38;8.10;99.90
21950;DHT22;11139;51.284;7.226;2024-03-02T14:29:04;8.10;99.90
21950;DHT22;11139;51.284;7.226;2024-03-02T14:31:29;8.20;99.90
21950;DHT22;11139;51.284;7.226;2024-03-02T14:33:56;8.20;99.90
21950;DHT22;11139;51.284;7.226;2024-03-02T14:36:22;8.20;99.90
21950;DHT22;11139;51.284;7.226;2024-03-02T14:38:47;8.20;99.90
21950;DHT22;11139;51.284;7.226;2024-03-02T14:41:13;8.10;99.90
21950;DHT22;11139;51.284;7.226;2024-03-02T14:43:39;8.10;99.90
21950;DHT22;11139;51.284;7.226;2024-03-02T14:46:05;8.20;99.90
21950;DHT22;11139;51.284;7.226;2024-03-02T14:48:31;8.20;99.90
21950;DHT22;11139;51.284;7.226;2024-03-02T14:50:56;8.20;99.90
21950;DHT22;11139;51.284;7.226;2024-03-02T14:53:22;8.20;99.90
21950;DHT22;11139;51.284;7.226;2024-03-02T14:55:48;8.10;99.90
21950;DHT22;11139;51.284;7.226;2024-03-02T14:58:13;8.30;99.90
21950;DHT22;11139;51.284;7.226;2024-03-02T15:00:39;8.40;99.90
21950;DHT22;11139;51.284;7.226;2024-03-02T15:03:04;8.40;99.90
21950;DHT22;11139;51.284;7.226;2024-03-02T15:05:34;8.40;99.90
21950;DHT22;11139;51.284;7.226;2024-03-02T15:08:00;8.40;99.90
21950;DHT22;11139;51.284;7.226;2024-03-02T15:10:27;8.50;99.90
21950;DHT22;11139;51.284;7.226;2024-03-02T15:12:53;8.50;99.90
21950;DHT22;11139;51.284;7.226;2024-03-02T15:15:18;8.50;99.90
21950;DHT22;11139;51.284;7.226;2024-03-02T15:17:44;8.50;99.90
21950;DHT22;11139;51.284;7.226;2024-03-02T15:20:09;8.50;99.90
21950;DHT22;11139;51.284;7.226;2024-03-02T15:22:37;8.50;99.90
21950;DHT22;11139;51.284;7.226;2024-03-02T15:25:03;8.50;99.90
21950;DHT22;11139;51.284;7.226;2024-03-02T15:27:28;8.50;99.90
21950;DHT22;11139;51.284;7.226;2024-03-02T15:29:54;8.50;99.90
21950;DHT22;11139;51.284;7.226;2024-03-02T15:32:20;8.50;99.90
21950;DHT22;11139;51.284;7.226;2024-03-02T15:34:46;8.50;99.90
21950;DHT22;11139;51.284;7.226;2024-03-02T15:37:12;8.50;99.90
21950;DHT22;11139;51.284;7.226;2024-03-02T15:39:37;8.50;99.90
21950;DHT22;11139;51.284;7.226;2024-03-02T15:42:03;8.70;99.90
21950;DHT22;11139;51.284;7.226;2024-03-02T15:44:30;8.70;99.90
21950;DHT22;11139;51.284;7.226;2024-03-02T15:46:56;8.70;99.90